sensor_id;sensor_type;location;lat;lon;timestamp;P1;durP1;ratioP1;P2;durP2;ratioP2
25381;SDS011;16307;42.896;20.874;2023-03-03T00:01:39;27.33;;;13.77;;
25381;SDS011;16307;42.896;20.874;2023-03-03T00:04:26;23.27;;;13.90;;
25381;SDS011;16307;42.896;20.874;2023-03-03T00:07:12;30.20;;;14.35;;
25381;SDS011;16307;42.896;20.874;2023-03-03T00:09:59;27.60;;;14.70;;
25381;SDS011;16307;42.896;20.874;2023-03-03T00:12:46;29.33;;;13.93;;
25381;SDS011;16307;42.896;20.874;2023-03-03T00:15:33;29.42;;;14.52;;
25381;SDS011;16307;42.896;20.874;2023-03-03T00:18:23;33.47;;;15.73;;
25381;SDS011;16307;42.896;20.874;2023-03-03T00:24:16;34.72;;;16.10;;
25381;SDS011;16307;42.896;20.874;2023-03-03T00:27:49;29.75;;;15.05;;
25381;SDS011;16307;42.896;20.874;2023-03-03T00:30:24;26.35;;;13.88;;
25381;SDS011;16307;42.896;20.874;2023-03-03T00:36:26;27.20;;;13.75;;
25381;SDS011;16307;42.896;20.874;2023-03-03T00:42:01;28.63;;;13.75;;
25381;SDS011;16307;42.896;20.874;2023-03-03T00:44:57;35.53;;;16.77;;
25381;SDS011;16307;42.896;20.874;2023-03-03T00:47:43;37.88;;;16.38;;
25381;SDS011;16307;42.896;20.874;2023-03-03T00:50:33;33.92;;;16.02;;
25381;SDS011;16307;42.896;20.874;2023-03-03T00:53:20;35.30;;;16.17;;
25381;SDS011;16307;42.896;20.874;2023-03-03T00:56:08;25.42;;;13.32;;
25381;SDS011;16307;42.896;20.874;2023-03-03T00:58:54;22.83;;;12.68;;
25381;SDS011;16307;42.896;20.874;2023-03-03T01:01:40;24.48;;;13.52;;
25381;SDS011;16307;42.896;20.874;2023-03-03T01:04:26;22.88;;;12.95;;
25381;SDS011;16307;42.896;20.874;2023-03-03T01:07:12;23.63;;;11.77;;
25381;SDS011;16307;42.896;20.874;2023-03-03T01:09:58;23.27;;;13.38;;
25381;SDS011;16307;42.896;20.874;2023-03-03T01:12:44;21.67;;;12.40;;
25381;SDS011;16307;42.896;20.874;2023-03-03T01:15:30;23.83;;;12.40;;
25381;SDS011;16307;42.896;20.874;2023-03-03T01:18:16;24.60;;;12.73;;
25381;SDS011;16307;42.896;20.874;2023-03-03T01:21:03;22.65;;;12.93;;
25381;SDS011;16307;42.896;20.874;2023-03-03T01:23:49;23.73;;;12.65;;
25381;SDS011;16307;42.896;20.874;2023-03-03T01:26:36;24.10;;;12.73;;
25381;SDS011;16307;42.896;20.874;2023-03-03T01:29:23;21.40;;;11.80;;
25381;SDS011;16307;42.896;20.874;2023-03-03T01:32:09;25.40;;;12.40;;
25381;SDS011;16307;42.896;20.874;2023-03-03T01:34:55;27.23;;;12.25;;
25381;SDS011;16307;42.896;20.874;2023-03-03T01:37:41;23.50;;;13.05;;
25381;SDS011;16307;42.896;20.874;2023-03-03T01:40:28;22.17;;;12.55;;
25381;SDS011;16307;42.896;20.874;2023-03-03T01:43:15;29.55;;;12.77;;
25381;SDS011;16307;42.896;20.874;2023-03-03T01:48:47;22.25;;;12.43;;
25381;SDS011;16307;42.896;20.874;2023-03-03T01:51:35;23.27;;;12.60;;
25381;SDS011;16307;42.896;20.874;2023-03-03T01:54:25;28.02;;;12.80;;
25381;SDS011;16307;42.896;20.874;2023-03-03T01:57:15;23.95;;;12.52;;
25381;SDS011;16307;42.896;20.874;2023-03-03T02:00:04;29.42;;;13.98;;
25381;SDS011;16307;42.896;20.874;2023-03-03T02:02:57;24.00;;;13.85;;
25381;SDS011;16307;42.896;20.874;2023-03-03T02:05:43;22.15;;;12.27;;
25381;SDS011;16307;42.896;20.874;2023-03-03T02:08:30;25.13;;;11.23;;
25381;SDS011;16307;42.896;20.874;2023-03-03T02:11:22;20.98;;;10.70;;
25381;SDS011;16307;42.896;20.874;2023-03-03T02:14:09;21.15;;;10.80;;
25381;SDS011;16307;42.896;20.874;2023-03-03T02:17:00;21.38;;;10.80;;
25381;SDS011;16307;42.896;20.874;2023-03-03T02:22:53;20.50;;;10.98;;
25381;SDS011;16307;42.896;20.874;2023-03-03T02:28:45;24.05;;;10.98;;
25381;SDS011;16307;42.896;20.874;2023-03-03T02:31:31;21.67;;;10.70;;
25381;SDS011;16307;42.896;20.874;2023-03-03T02:34:17;18.85;;;10.48;;
25381;SDS011;16307;42.896;20.874;2023-03-03T02:37:03;19.48;;;10.30;;
25381;SDS011;16307;42.896;20.874;2023-03-03T02:39:50;22.95;;;11.73;;
25381;SDS011;16307;42.896;20.874;2023-03-03T02:42:36;19.02;;;10.98;;
25381;SDS011;16307;42.896;20.874;2023-03-03T02:45:22;24.95;;;13.02;;
25381;SDS011;16307;42.896;20.874;2023-03-03T02:48:08;26.45;;;13.07;;
25381;SDS011;16307;42.896;20.874;2023-03-03T02:50:56;23.75;;;12.93;;
25381;SDS011;16307;42.896;20.874;2023-03-03T02:53:42;24.95;;;14.38;;
25381;SDS011;16307;42.896;20.874;2023-03-03T02:56:28;26.75;;;14.80;;
25381;SDS011;16307;42.896;20.874;2023-03-03T02:59:15;28.92;;;14.15;;
25381;SDS011;16307;42.896;20.874;2023-03-03T03:02:05;26.25;;;15.07;;
25381;SDS011;16307;42.896;20.874;2023-03-03T03:04:53;23.17;;;12.82;;
25381;SDS011;16307;42.896;20.874;2023-03-03T03:07:42;22.80;;;12.57;;
25381;SDS011;16307;42.896;20.874;2023-03-03T03:10:28;23.77;;;12.55;;
25381;SDS011;16307;42.896;20.874;2023-03-03T03:13:14;22.55;;;12.55;;
25381;SDS011;16307;42.896;20.874;2023-03-03T03:16:01;22.13;;;11.88;;
25381;SDS011;16307;42.896;20.874;2023-03-03T03:18:47;20.25;;;11.75;;
25381;SDS011;16307;42.896;20.874;2023-03-03T03:21:35;19.52;;;10.95;;
25381;SDS011;16307;42.896;20.874;2023-03-03T03:24:23;22.38;;;11.30;;
25381;SDS011;16307;42.896;20.874;2023-03-03T03:27:15;21.08;;;11.27;;
25381;SDS011;16307;42.896;20.874;2023-03-03T03:30:02;22.73;;;11.52;;
25381;SDS011;16307;42.896;20.874;2023-03-03T03:32:48;22.90;;;10.43;;
25381;SDS011;16307;42.896;20.874;2023-03-03T03:35:35;23.25;;;11.45;;
25381;SDS011;16307;42.896;20.874;2023-03-03T03:38:22;19.98;;;10.43;;
25381;SDS011;16307;42.896;20.874;2023-03-03T03:41:10;21.20;;;10.82;;
25381;SDS011;16307;42.896;20.874;2023-03-03T03:43:56;23.83;;;10.75;;
25381;SDS011;16307;42.896;20.874;2023-03-03T03:46:42;23.17;;;11.20;;
25381;SDS011;16307;42.896;20.874;2023-03-03T03:49:28;24.40;;;11.73;;
25381;SDS011;16307;42.896;20.874;2023-03-03T03:52:16;28.65;;;12.15;;
25381;SDS011;16307;42.896;20.874;2023-03-03T03:55:02;27.83;;;13.80;;
25381;SDS011;16307;42.896;20.874;2023-03-03T03:57:50;25.73;;;13.90;;
25381;SDS011;16307;42.896;20.874;2023-03-03T04:00:38;23.38;;;12.35;;
25381;SDS011;16307;42.896;20.874;2023-03-03T04:03:27;20.10;;;10.52;;
25381;SDS011;16307;42.896;20.874;2023-03-03T04:06:13;18.70;;;10.80;;
25381;SDS011;16307;42.896;20.874;2023-03-03T04:09:00;19.98;;;10.85;;
25381;SDS011;16307;42.896;20.874;2023-03-03T04:11:47;15.95;;;9.45;;
25381;SDS011;16307;42.896;20.874;2023-03-03T04:14:34;18.63;;;10.13;;
25381;SDS011;16307;42.896;20.874;2023-03-03T04:17:21;17.15;;;10.15;;
25381;SDS011;16307;42.896;20.874;2023-03-03T04:20:10;18.55;;;9.70;;
25381;SDS011;16307;42.896;20.874;2023-03-03T04:22:58;16.48;;;9.63;;
25381;SDS011;16307;42.896;20.874;2023-03-03T04:25:45;19.30;;;9.20;;
25381;SDS011;16307;42.896;20.874;2023-03-03T04:28:32;19.17;;;9.82;;
25381;SDS011;16307;42.896;20.874;2023-03-03T04:31:18;20.13;;;10.68;;
25381;SDS011;16307;42.896;20.874;2023-03-03T04:34:06;18.80;;;10.32;;
25381;SDS011;16307;42.896;20.874;2023-03-03T04:36:52;21.92;;;11.23;;
25381;SDS011;16307;42.896;20.874;2023-03-03T04:39:38;22.70;;;11.35;;
25381;SDS011;16307;42.896;20.874;2023-03-03T04:42:24;19.17;;;10.65;;
25381;SDS011;16307;42.896;20.874;2023-03-03T04:45:13;19.85;;;11.85;;
25381;SDS011;16307;42.896;20.874;2023-03-03T04:47:59;25.85;;;12.10;;
25381;SDS011;16307;42.896;20.874;2023-03-03T04:50:45;26.50;;;13.15;;
25381;SDS011;16307;42.896;20.874;2023-03-03T04:53:31;25.40;;;12.77;;
25381;SDS011;16307;42.896;20.874;2023-03-03T04:56:17;20.98;;;11.15;;
25381;SDS011;16307;42.896;20.874;2023-03-03T04:59:03;20.02;;;10.50;;
25381;SDS011;16307;42.896;20.874;2023-03-03T05:01:50;21.88;;;10.55;;
25381;SDS011;16307;42.896;20.874;2023-03-03T05:04:35;19.73;;;11.13;;
25381;SDS011;16307;42.896;20.874;2023-03-03T05:07:21;25.42;;;12.13;;
25381;SDS011;16307;42.896;20.874;2023-03-03T05:10:09;32.20;;;15.18;;
25381;SDS011;16307;42.896;20.874;2023-03-03T05:12:55;30.15;;;13.30;;
25381;SDS011;16307;42.896;20.874;2023-03-03T05:15:41;29.85;;;13.65;;
25381;SDS011;16307;42.896;20.874;2023-03-03T05:18:27;28.52;;;13.57;;
25381;SDS011;16307;42.896;20.874;2023-03-03T05:21:13;31.63;;;14.07;;
25381;SDS011;16307;42.896;20.874;2023-03-03T05:23:59;30.35;;;14.80;;
25381;SDS011;16307;42.896;20.874;2023-03-03T05:26:45;31.80;;;13.88;;
25381;SDS011;16307;42.896;20.874;2023-03-03T05:29:32;25.60;;;12.68;;
25381;SDS011;16307;42.896;20.874;2023-03-03T05:32:18;29.52;;;13.65;;
25381;SDS011;16307;42.896;20.874;2023-03-03T05:35:04;29.90;;;12.38;;
25381;SDS011;16307;42.896;20.874;2023-03-03T05:37:50;30.23;;;13.80;;
25381;SDS011;16307;42.896;20.874;2023-03-03T05:40:37;32.65;;;13.77;;
25381;SDS011;16307;42.896;20.874;2023-03-03T05:43:23;34.90;;;13.90;;
25381;SDS011;16307;42.896;20.874;2023-03-03T05:46:10;26.98;;;13.23;;
25381;SDS011;16307;42.896;20.874;2023-03-03T05:48:57;36.33;;;14.55;;
25381;SDS011;16307;42.896;20.874;2023-03-03T05:51:42;37.17;;;15.88;;
25381;SDS011;16307;42.896;20.874;2023-03-03T05:54:28;44.28;;;17.77;;
25381;SDS011;16307;42.896;20.874;2023-03-03T05:57:14;44.25;;;17.38;;
25381;SDS011;16307;42.896;20.874;2023-03-03T06:00:02;43.13;;;17.40;;
25381;SDS011;16307;42.896;20.874;2023-03-03T06:02:56;48.05;;;19.48;;
25381;SDS011;16307;42.896;20.874;2023-03-03T06:05:42;42.90;;;17.90;;
25381;SDS011;16307;42.896;20.874;2023-03-03T06:08:28;42.67;;;17.02;;
25381;SDS011;16307;42.896;20.874;2023-03-03T06:11:15;33.47;;;15.15;;
25381;SDS011;16307;42.896;20.874;2023-03-03T06:14:03;38.78;;;17.55;;
25381;SDS011;16307;42.896;20.874;2023-03-03T06:16:50;44.80;;;16.75;;
25381;SDS011;16307;42.896;20.874;2023-03-03T06:19:36;38.95;;;17.17;;
25381;SDS011;16307;42.896;20.874;2023-03-03T06:22:22;54.03;;;18.30;;
25381;SDS011;16307;42.896;20.874;2023-03-03T06:25:13;44.92;;;17.85;;
25381;SDS011;16307;42.896;20.874;2023-03-03T06:27:59;42.92;;;16.48;;
25381;SDS011;16307;42.896;20.874;2023-03-03T06:30:45;44.65;;;17.30;;
25381;SDS011;16307;42.896;20.874;2023-03-03T06:33:31;47.00;;;16.50;;
25381;SDS011;16307;42.896;20.874;2023-03-03T06:36:17;42.95;;;18.42;;
25381;SDS011;16307;42.896;20.874;2023-03-03T06:39:03;42.30;;;17.13;;
25381;SDS011;16307;42.896;20.874;2023-03-03T06:41:49;38.33;;;18.25;;
25381;SDS011;16307;42.896;20.874;2023-03-03T06:44:35;40.17;;;17.48;;
25381;SDS011;16307;42.896;20.874;2023-03-03T06:47:21;37.05;;;16.88;;
25381;SDS011;16307;42.896;20.874;2023-03-03T06:50:08;44.10;;;17.10;;
25381;SDS011;16307;42.896;20.874;2023-03-03T06:53:19;36.35;;;16.20;;
25381;SDS011;16307;42.896;20.874;2023-03-03T06:56:06;38.13;;;16.17;;
25381;SDS011;16307;42.896;20.874;2023-03-03T06:58:55;39.35;;;15.57;;
25381;SDS011;16307;42.896;20.874;2023-03-03T07:01:42;35.88;;;15.20;;
25381;SDS011;16307;42.896;20.874;2023-03-03T07:04:32;36.38;;;16.33;;
25381;SDS011;16307;42.896;20.874;2023-03-03T07:07:22;35.55;;;15.68;;
25381;SDS011;16307;42.896;20.874;2023-03-03T07:10:31;41.20;;;16.65;;
25381;SDS011;16307;42.896;20.874;2023-03-03T07:13:23;38.88;;;17.90;;
25381;SDS011;16307;42.896;20.874;2023-03-03T07:16:11;36.55;;;16.95;;
25381;SDS011;16307;42.896;20.874;2023-03-03T07:18:58;43.97;;;18.13;;
25381;SDS011;16307;42.896;20.874;2023-03-03T07:21:50;36.78;;;17.35;;
25381;SDS011;16307;42.896;20.874;2023-03-03T07:24:37;38.30;;;18.38;;
25381;SDS011;16307;42.896;20.874;2023-03-03T07:27:24;44.97;;;21.25;;
25381;SDS011;16307;42.896;20.874;2023-03-03T07:30:25;45.97;;;19.27;;
25381;SDS011;16307;42.896;20.874;2023-03-03T07:33:34;44.80;;;21.33;;
25381;SDS011;16307;42.896;20.874;2023-03-03T07:36:25;54.72;;;24.75;;
25381;SDS011;16307;42.896;20.874;2023-03-03T07:45:46;46.33;;;21.90;;
25381;SDS011;16307;42.896;20.874;2023-03-03T07:48:35;45.95;;;21.88;;
25381;SDS011;16307;42.896;20.874;2023-03-03T07:54:22;46.80;;;21.52;;
25381;SDS011;16307;42.896;20.874;2023-03-03T08:03:10;72.78;;;34.20;;
25381;SDS011;16307;42.896;20.874;2023-03-03T08:06:07;58.53;;;31.45;;
25381;SDS011;16307;42.896;20.874;2023-03-03T08:12:00;58.70;;;30.73;;
25381;SDS011;16307;42.896;20.874;2023-03-03T08:14:46;50.28;;;24.77;;
25381;SDS011;16307;42.896;20.874;2023-03-03T08:17:35;41.75;;;22.00;;
25381;SDS011;16307;42.896;20.874;2023-03-03T08:20:43;40.92;;;20.10;;
25381;SDS011;16307;42.896;20.874;2023-03-03T08:23:31;41.28;;;21.90;;
25381;SDS011;16307;42.896;20.874;2023-03-03T08:26:17;40.92;;;19.60;;
25381;SDS011;16307;42.896;20.874;2023-03-03T08:29:04;38.28;;;18.73;;
25381;SDS011;16307;42.896;20.874;2023-03-03T08:31:50;36.58;;;18.98;;
25381;SDS011;16307;42.896;20.874;2023-03-03T08:34:36;36.92;;;19.40;;
25381;SDS011;16307;42.896;20.874;2023-03-03T08:37:22;35.85;;;18.45;;
25381;SDS011;16307;42.896;20.874;2023-03-03T08:40:08;39.00;;;21.67;;
25381;SDS011;16307;42.896;20.874;2023-03-03T08:42:55;37.50;;;19.50;;
25381;SDS011;16307;42.896;20.874;2023-03-03T08:45:49;28.45;;;14.57;;
25381;SDS011;16307;42.896;20.874;2023-03-03T08:48:36;35.58;;;19.58;;
25381;SDS011;16307;42.896;20.874;2023-03-03T08:51:22;36.67;;;19.48;;
25381;SDS011;16307;42.896;20.874;2023-03-03T08:54:09;39.05;;;20.48;;
25381;SDS011;16307;42.896;20.874;2023-03-03T08:56:55;23.73;;;12.60;;
25381;SDS011;16307;42.896;20.874;2023-03-03T08:59:41;19.23;;;11.43;;
25381;SDS011;16307;42.896;20.874;2023-03-03T09:02:27;23.38;;;11.27;;
25381;SDS011;16307;42.896;20.874;2023-03-03T09:05:13;25.40;;;12.43;;
25381;SDS011;16307;42.896;20.874;2023-03-03T09:07:59;32.38;;;16.02;;
25381;SDS011;16307;42.896;20.874;2023-03-03T09:10:45;25.17;;;13.27;;
25381;SDS011;16307;42.896;20.874;2023-03-03T09:13:31;23.80;;;12.05;;
25381;SDS011;16307;42.896;20.874;2023-03-03T09:16:18;23.75;;;13.75;;
25381;SDS011;16307;42.896;20.874;2023-03-03T09:19:17;33.25;;;14.93;;
25381;SDS011;16307;42.896;20.874;2023-03-03T09:22:40;30.77;;;16.25;;
25381;SDS011;16307;42.896;20.874;2023-03-03T09:25:36;30.90;;;16.13;;
25381;SDS011;16307;42.896;20.874;2023-03-03T09:28:29;29.00;;;14.15;;
25381;SDS011;16307;42.896;20.874;2023-03-03T09:31:32;34.60;;;16.50;;
25381;SDS011;16307;42.896;20.874;2023-03-03T09:37:30;31.48;;;16.58;;
25381;SDS011;16307;42.896;20.874;2023-03-03T09:40:40;32.80;;;14.95;;
25381;SDS011;16307;42.896;20.874;2023-03-03T09:43:50;21.40;;;11.75;;
25381;SDS011;16307;42.896;20.874;2023-03-03T09:49:48;32.70;;;14.73;;
25381;SDS011;16307;42.896;20.874;2023-03-03T10:01:49;31.50;;;15.18;;
25381;SDS011;16307;42.896;20.874;2023-03-03T10:22:55;43.15;;;22.88;;
25381;SDS011;16307;42.896;20.874;2023-03-03T10:26:07;39.50;;;20.65;;
25381;SDS011;16307;42.896;20.874;2023-03-03T10:31:58;44.83;;;22.45;;
25381;SDS011;16307;42.896;20.874;2023-03-03T10:35:12;39.45;;;21.60;;
25381;SDS011;16307;42.896;20.874;2023-03-03T10:50:23;37.92;;;16.77;;
25381;SDS011;16307;42.896;20.874;2023-03-03T10:56:44;31.93;;;15.53;;
25381;SDS011;16307;42.896;20.874;2023-03-03T11:00:26;26.95;;;13.93;;
25381;SDS011;16307;42.896;20.874;2023-03-03T11:03:46;31.65;;;15.77;;
25381;SDS011;16307;42.896;20.874;2023-03-03T11:09:40;34.22;;;15.50;;
25381;SDS011;16307;42.896;20.874;2023-03-03T11:28:04;25.35;;;10.35;;
25381;SDS011;16307;42.896;20.874;2023-03-03T11:36:43;16.98;;;7.93;;
25381;SDS011;16307;42.896;20.874;2023-03-03T11:39:31;29.05;;;11.32;;
25381;SDS011;16307;42.896;20.874;2023-03-03T11:42:20;22.70;;;9.60;;
25381;SDS011;16307;42.896;20.874;2023-03-03T11:45:12;17.90;;;9.70;;
25381;SDS011;16307;42.896;20.874;2023-03-03T11:51:04;29.13;;;11.52;;
25381;SDS011;16307;42.896;20.874;2023-03-03T11:54:00;21.38;;;10.30;;
25381;SDS011;16307;42.896;20.874;2023-03-03T11:56:50;20.67;;;10.13;;
25381;SDS011;16307;42.896;20.874;2023-03-03T11:59:52;20.33;;;10.80;;
25381;SDS011;16307;42.896;20.874;2023-03-03T12:12:20;26.90;;;11.18;;
25381;SDS011;16307;42.896;20.874;2023-03-03T12:21:47;16.35;;;8.23;;
25381;SDS011;16307;42.896;20.874;2023-03-03T12:28:04;15.80;;;7.97;;
25381;SDS011;16307;42.896;20.874;2023-03-03T12:40:18;19.27;;;8.98;;
25381;SDS011;16307;42.896;20.874;2023-03-03T12:43:14;20.77;;;8.25;;
25381;SDS011;16307;42.896;20.874;2023-03-03T12:49:00;21.95;;;8.30;;
25381;SDS011;16307;42.896;20.874;2023-03-03T12:52:08;20.95;;;8.30;;
25381;SDS011;16307;42.896;20.874;2023-03-03T13:12:53;17.23;;;7.53;;
25381;SDS011;16307;42.896;20.874;2023-03-03T13:16:14;16.48;;;7.43;;
25381;SDS011;16307;42.896;20.874;2023-03-03T13:19:26;19.00;;;6.72;;
25381;SDS011;16307;42.896;20.874;2023-03-03T13:25:31;18.23;;;6.20;;
25381;SDS011;16307;42.896;20.874;2023-03-03T13:31:22;13.52;;;5.30;;
25381;SDS011;16307;42.896;20.874;2023-03-03T13:42:58;12.85;;;5.15;;
25381;SDS011;16307;42.896;20.874;2023-03-03T13:52:40;13.98;;;4.90;;
25381;SDS011;16307;42.896;20.874;2023-03-03T13:55:42;15.95;;;5.75;;
25381;SDS011;16307;42.896;20.874;2023-03-03T13:58:32;14.32;;;5.80;;
25381;SDS011;16307;42.896;20.874;2023-03-03T14:01:27;13.07;;;5.53;;
25381;SDS011;16307;42.896;20.874;2023-03-03T14:07:44;15.15;;;6.55;;
25381;SDS011;16307;42.896;20.874;2023-03-03T14:10:37;17.63;;;5.82;;
25381;SDS011;16307;42.896;20.874;2023-03-03T14:13:30;13.02;;;5.03;;
25381;SDS011;16307;42.896;20.874;2023-03-03T14:19:43;15.93;;;5.82;;
25381;SDS011;16307;42.896;20.874;2023-03-03T14:26:07;16.10;;;5.22;;
25381;SDS011;16307;42.896;20.874;2023-03-03T14:29:03;17.35;;;5.97;;
25381;SDS011;16307;42.896;20.874;2023-03-03T14:32:02;12.82;;;5.00;;
25381;SDS011;16307;42.896;20.874;2023-03-03T14:35:12;18.00;;;6.50;;
25381;SDS011;16307;42.896;20.874;2023-03-03T14:38:11;19.67;;;7.45;;
25381;SDS011;16307;42.896;20.874;2023-03-03T14:41:11;16.52;;;6.72;;
25381;SDS011;16307;42.896;20.874;2023-03-03T14:50:01;14.88;;;8.30;;
25381;SDS011;16307;42.896;20.874;2023-03-03T14:53:22;28.02;;;10.35;;
25381;SDS011;16307;42.896;20.874;2023-03-03T14:59:19;26.75;;;13.13;;
25381;SDS011;16307;42.896;20.874;2023-03-03T15:05:15;25.77;;;11.32;;
25381;SDS011;16307;42.896;20.874;2023-03-03T15:08:15;19.65;;;8.02;;
25381;SDS011;16307;42.896;20.874;2023-03-03T15:11:17;24.50;;;8.90;;
25381;SDS011;16307;42.896;20.874;2023-03-03T15:14:10;17.35;;;9.38;;
25381;SDS011;16307;42.896;20.874;2023-03-03T15:17:12;20.27;;;9.25;;
25381;SDS011;16307;42.896;20.874;2023-03-03T15:38:49;16.13;;;8.25;;
25381;SDS011;16307;42.896;20.874;2023-03-03T15:44:53;12.70;;;7.43;;
25381;SDS011;16307;42.896;20.874;2023-03-03T15:57:20;13.00;;;7.30;;
25381;SDS011;16307;42.896;20.874;2023-03-03T16:03:15;15.10;;;8.02;;
25381;SDS011;16307;42.896;20.874;2023-03-03T16:06:07;16.90;;;6.95;;
25381;SDS011;16307;42.896;20.874;2023-03-03T16:09:00;13.98;;;7.32;;
25381;SDS011;16307;42.896;20.874;2023-03-03T16:21:47;15.93;;;6.90;;
25381;SDS011;16307;42.896;20.874;2023-03-03T16:24:47;11.40;;;6.10;;
25381;SDS011;16307;42.896;20.874;2023-03-03T16:27:51;12.38;;;6.03;;
25381;SDS011;16307;42.896;20.874;2023-03-03T16:31:12;20.00;;;10.23;;
25381;SDS011;16307;42.896;20.874;2023-03-03T16:40:22;19.88;;;9.52;;
25381;SDS011;16307;42.896;20.874;2023-03-03T16:43:19;19.20;;;10.00;;
25381;SDS011;16307;42.896;20.874;2023-03-03T16:46:31;23.92;;;13.05;;
25381;SDS011;16307;42.896;20.874;2023-03-03T16:49:42;28.25;;;14.23;;
25381;SDS011;16307;42.896;20.874;2023-03-03T16:52:42;21.00;;;12.20;;
25381;SDS011;16307;42.896;20.874;2023-03-03T16:55:53;16.52;;;9.35;;
25381;SDS011;16307;42.896;20.874;2023-03-03T17:05:00;14.52;;;9.07;;
25381;SDS011;16307;42.896;20.874;2023-03-03T17:29:35;15.98;;;8.73;;
25381;SDS011;16307;42.896;20.874;2023-03-03T17:45:30;27.02;;;14.82;;
25381;SDS011;16307;42.896;20.874;2023-03-03T17:48:24;34.80;;;20.00;;
25381;SDS011;16307;42.896;20.874;2023-03-03T18:10:38;53.92;;;30.25;;
25381;SDS011;16307;42.896;20.874;2023-03-03T18:19:30;60.90;;;33.78;;
25381;SDS011;16307;42.896;20.874;2023-03-03T18:22:49;48.50;;;28.10;;
25381;SDS011;16307;42.896;20.874;2023-03-03T18:28:47;45.10;;;25.98;;
25381;SDS011;16307;42.896;20.874;2023-03-03T18:32:19;44.22;;;23.77;;
25381;SDS011;16307;42.896;20.874;2023-03-03T18:34:44;40.78;;;23.00;;
25381;SDS011;16307;42.896;20.874;2023-03-03T18:49:11;33.75;;;18.40;;
25381;SDS011;16307;42.896;20.874;2023-03-03T18:52:15;29.10;;;17.77;;
25381;SDS011;16307;42.896;20.874;2023-03-03T18:58:03;33.38;;;17.88;;
25381;SDS011;16307;42.896;20.874;2023-03-03T19:04:00;26.50;;;16.13;;
25381;SDS011;16307;42.896;20.874;2023-03-03T19:06:55;30.15;;;14.93;;
25381;SDS011;16307;42.896;20.874;2023-03-03T19:15:44;27.30;;;15.48;;
25381;SDS011;16307;42.896;20.874;2023-03-03T19:21:30;23.27;;;13.88;;
25381;SDS011;16307;42.896;20.874;2023-03-03T19:24:31;19.80;;;10.67;;
25381;SDS011;16307;42.896;20.874;2023-03-03T19:41:12;16.65;;;9.30;;
25381;SDS011;16307;42.896;20.874;2023-03-03T19:47:35;18.75;;;11.05;;
25381;SDS011;16307;42.896;20.874;2023-03-03T19:50:31;16.75;;;10.13;;
25381;SDS011;16307;42.896;20.874;2023-03-03T19:53:22;17.05;;;10.48;;
25381;SDS011;16307;42.896;20.874;2023-03-03T20:05:14;18.40;;;11.70;;
25381;SDS011;16307;42.896;20.874;2023-03-03T20:08:20;19.35;;;12.20;;
25381;SDS011;16307;42.896;20.874;2023-03-03T20:14:23;25.50;;;14.32;;
25381;SDS011;16307;42.896;20.874;2023-03-03T20:23:33;19.50;;;11.65;;
25381;SDS011;16307;42.896;20.874;2023-03-03T20:29:23;20.23;;;12.10;;
25381;SDS011;16307;42.896;20.874;2023-03-03T20:35:38;21.85;;;12.52;;
25381;SDS011;16307;42.896;20.874;2023-03-03T20:38:42;19.70;;;11.55;;
25381;SDS011;16307;42.896;20.874;2023-03-03T20:44:27;19.27;;;11.57;;
25381;SDS011;16307;42.896;20.874;2023-03-03T20:59:26;27.92;;;15.68;;
25381;SDS011;16307;42.896;20.874;2023-03-03T21:05:24;31.80;;;17.75;;
25381;SDS011;16307;42.896;20.874;2023-03-03T21:08:10;33.72;;;18.48;;
25381;SDS011;16307;42.896;20.874;2023-03-03T21:10:56;30.42;;;17.25;;
25381;SDS011;16307;42.896;20.874;2023-03-03T21:13:43;31.05;;;18.35;;
25381;SDS011;16307;42.896;20.874;2023-03-03T21:16:36;33.95;;;20.00;;
25381;SDS011;16307;42.896;20.874;2023-03-03T21:19:32;34.58;;;20.60;;
25381;SDS011;16307;42.896;20.874;2023-03-03T21:22:20;28.92;;;17.00;;
25381;SDS011;16307;42.896;20.874;2023-03-03T21:25:06;32.13;;;18.00;;
25381;SDS011;16307;42.896;20.874;2023-03-03T21:33:58;32.90;;;18.55;;
25381;SDS011;16307;42.896;20.874;2023-03-03T21:36:45;31.48;;;18.48;;
25381;SDS011;16307;42.896;20.874;2023-03-03T21:39:35;28.63;;;16.52;;
25381;SDS011;16307;42.896;20.874;2023-03-03T21:42:39;26.85;;;16.38;;
25381;SDS011;16307;42.896;20.874;2023-03-03T21:45:26;29.80;;;16.90;;
25381;SDS011;16307;42.896;20.874;2023-03-03T21:48:14;30.55;;;16.92;;
25381;SDS011;16307;42.896;20.874;2023-03-03T21:51:00;25.90;;;16.23;;
25381;SDS011;16307;42.896;20.874;2023-03-03T21:53:46;24.17;;;14.65;;
25381;SDS011;16307;42.896;20.874;2023-03-03T21:56:32;28.48;;;15.57;;
25381;SDS011;16307;42.896;20.874;2023-03-03T21:59:20;25.80;;;15.25;;
25381;SDS011;16307;42.896;20.874;2023-03-03T22:02:06;27.52;;;15.45;;
25381;SDS011;16307;42.896;20.874;2023-03-03T22:04:52;26.90;;;15.43;;
25381;SDS011;16307;42.896;20.874;2023-03-03T22:07:38;24.33;;;14.35;;
25381;SDS011;16307;42.896;20.874;2023-03-03T22:10:24;22.92;;;14.43;;
25381;SDS011;16307;42.896;20.874;2023-03-03T22:13:10;29.35;;;16.83;;
25381;SDS011;16307;42.896;20.874;2023-03-03T22:15:56;25.23;;;15.15;;
25381;SDS011;16307;42.896;20.874;2023-03-03T22:18:42;22.70;;;13.32;;
25381;SDS011;16307;42.896;20.874;2023-03-03T22:21:36;27.08;;;15.55;;
25381;SDS011;16307;42.896;20.874;2023-03-03T22:24:24;24.25;;;14.65;;
25381;SDS011;16307;42.896;20.874;2023-03-03T22:27:10;26.95;;;15.77;;
25381;SDS011;16307;42.896;20.874;2023-03-03T22:29:57;26.55;;;15.40;;
25381;SDS011;16307;42.896;20.874;2023-03-03T22:32:42;25.70;;;16.23;;
25381;SDS011;16307;42.896;20.874;2023-03-03T22:35:28;26.65;;;15.52;;
25381;SDS011;16307;42.896;20.874;2023-03-03T22:38:15;27.52;;;15.95;;
25381;SDS011;16307;42.896;20.874;2023-03-03T22:41:01;24.45;;;14.50;;
25381;SDS011;16307;42.896;20.874;2023-03-03T22:43:47;26.58;;;15.70;;
25381;SDS011;16307;42.896;20.874;2023-03-03T22:46:33;23.58;;;13.45;;
25381;SDS011;16307;42.896;20.874;2023-03-03T22:49:19;28.10;;;15.38;;
25381;SDS011;16307;42.896;20.874;2023-03-03T22:52:05;24.23;;;14.65;;
25381;SDS011;16307;42.896;20.874;2023-03-03T22:54:51;27.98;;;14.90;;
25381;SDS011;16307;42.896;20.874;2023-03-03T22:57:37;26.65;;;15.55;;
25381;SDS011;16307;42.896;20.874;2023-03-03T23:00:23;28.55;;;15.40;;
25381;SDS011;16307;42.896;20.874;2023-03-03T23:03:09;28.58;;;14.20;;
25381;SDS011;16307;42.896;20.874;2023-03-03T23:05:55;20.90;;;12.70;;
25381;SDS011;16307;42.896;20.874;2023-03-03T23:08:41;26.25;;;14.20;;
25381;SDS011;16307;42.896;20.874;2023-03-03T23:11:27;24.58;;;15.02;;
25381;SDS011;16307;42.896;20.874;2023-03-03T23:14:13;26.15;;;15.20;;
25381;SDS011;16307;42.896;20.874;2023-03-03T23:16:59;26.30;;;14.93;;
25381;SDS011;16307;42.896;20.874;2023-03-03T23:19:45;22.00;;;13.88;;
25381;SDS011;16307;42.896;20.874;2023-03-03T23:22:32;22.73;;;13.65;;
25381;SDS011;16307;42.896;20.874;2023-03-03T23:25:18;23.15;;;14.40;;
25381;SDS011;16307;42.896;20.874;2023-03-03T23:28:04;28.98;;;15.27;;
25381;SDS011;16307;42.896;20.874;2023-03-03T23:30:51;28.45;;;14.25;;